Manchester, MI

2:19 AM EST on December 18, 2014 (GMT -0500)
Chuck's House | Change Station
CLOSE
Current Station
Personal Weather Station
Location: Manchester, MI
Elevation: 899 ft
Nearby Weather Stations

Elev 899 ft 42.15 °N, 84.03 °W | Updated 7 minutes ago

Overcast
Overcast
28.2 °F
Feels Like 28 °F
N
0.0
Wind Variable Wind from West

Today
High -- | Low -- °F
--% Chance of Precip.
Yesterday
High -- | Low -- °F
Precip. -- in
7:59 AM 5:05 PM
Waning Crescent, 16% visible
Pressure 30.21 in
Visibility 10.0 miles
Clouds Overcast 2300 ft
Windchill 28 °F
Dew Point 24 °F
Humidity 83%
Rainfall 0.00 in
Snow Depth Not available.
UV 0 out of 12
Pollen .10 out of 12
Air Quality Not available.
Flu Activity Not available.
METAR KARB 180653Z AUTO 29011G18KT 10SM OVC023 M02/M07 A3018 RMK AO2 SLP229 T10171067

More Conditions Fewer Conditions

Pressure 30.21 in
Visibility 10.0 miles
Clouds Overcast 2300 ft
Windchill 28 °F
Dew Point 24 °F
Humidity 83%
Rainfall 0.00 in
Snow Depth Not available.
UV 0 out of 12
Pollen .10 out of 12
Air Quality Not available.
Flu Activity Not available.
METAR KARB 180653Z AUTO 29011G18KT 10SM OVC023 M02/M07 A3018 RMK AO2 SLP229 T10171067

More Conditions Fewer Conditions

10-Day Weather Forecast

Almanac

Astronomy

Dec. 18, 2014 Rise Set
Actual Time
Civil Twilight
Nautical Twilight
Astronomical Twilight
Moon
Length of Visible Light
Length of Day
Tomorrow will be .
, % of the Moon is Illuminated

Today's Extremes

State Highs State Lows

Community

WunderPhotos

Upload Photos

1,778,897 photos uploaded!

WunderBlogs® & News

Nearby

Air Quality

  Air Quality AQ Index Pollutant
Not available.

Snow Depth

Station Depth Elevation

Earthquake Activity

City Distance Mag. Time & Date
Minimum magnitude displayed is 2.5.

Coastal Water Temperatures

Place Temperature

Nearby Weather Stations